sensor_id;sensor_type;location;lat;lon;timestamp;temperature;humidity
68766;DHT22;55756;45.582;11.484;2022-07-29T00:00:46;25.80;56.50
68766;DHT22;55756;45.582;11.484;2022-07-29T00:03:12;25.50;57.20
68766;DHT22;55756;45.582;11.484;2022-07-29T00:05:42;25.00;59.90
68766;DHT22;55756;45.582;11.484;2022-07-29T00:08:08;24.50;61.50
68766;DHT22;55756;45.582;11.484;2022-07-29T00:10:34;24.10;63.70
68766;DHT22;55756;45.582;11.484;2022-07-29T00:13:01;23.70;64.90
68766;DHT22;55756;45.582;11.484;2022-07-29T00:15:27;23.30;67.00
68766;DHT22;55756;45.582;11.484;2022-07-29T00:17:53;23.10;68.20
68766;DHT22;55756;45.582;11.484;2022-07-29T00:20:19;23.20;68.80
68766;DHT22;55756;45.582;11.484;2022-07-29T00:22:45;23.00;69.10
68766;DHT22;55756;45.582;11.484;2022-07-29T00:25:12;22.80;70.50
68766;DHT22;55756;45.582;11.484;2022-07-29T00:27:38;23.10;70.30
68766;DHT22;55756;45.582;11.484;2022-07-29T00:30:04;23.10;69.50
68766;DHT22;55756;45.582;11.484;2022-07-29T00:32:30;23.30;68.60
68766;DHT22;55756;45.582;11.484;2022-07-29T00:34:56;23.60;68.40
68766;DHT22;55756;45.582;11.484;2022-07-29T00:37:40;23.80;68.00
68766;DHT22;55756;45.582;11.484;2022-07-29T00:40:07;24.00;67.90
68766;DHT22;55756;45.582;11.484;2022-07-29T00:42:46;24.00;66.10
68766;DHT22;55756;45.582;11.484;2022-07-29T00:45:13;24.00;65.30
68766;DHT22;55756;45.582;11.484;2022-07-29T00:47:40;24.10;64.60
68766;DHT22;55756;45.582;11.484;2022-07-29T00:50:07;23.90;64.50
68766;DHT22;55756;45.582;11.484;2022-07-29T00:52:34;23.90;63.50
68766;DHT22;55756;45.582;11.484;2022-07-29T00:55:06;24.00;63.50
68766;DHT22;55756;45.582;11.484;2022-07-29T00:57:33;24.10;63.40
68766;DHT22;55756;45.582;11.484;2022-07-29T00:59:59;24.20;64.50
68766;DHT22;55756;45.582;11.484;2022-07-29T01:02:25;24.10;65.70
68766;DHT22;55756;45.582;11.484;2022-07-29T01:04:51;24.10;66.40
68766;DHT22;55756;45.582;11.484;2022-07-29T01:07:17;24.20;66.20
68766;DHT22;55756;45.582;11.484;2022-07-29T01:09:44;24.30;67.20
68766;DHT22;55756;45.582;11.484;2022-07-29T01:12:13;24.20;67.10
68766;DHT22;55756;45.582;11.484;2022-07-29T01:14:41;24.30;66.90
68766;DHT22;55756;45.582;11.484;2022-07-29T01:17:17;24.30;66.80
68766;DHT22;55756;45.582;11.484;2022-07-29T01:22:17;24.30;66.70
68766;DHT22;55756;45.582;11.484;2022-07-29T01:30:22;24.20;67.50
68766;DHT22;55756;45.582;11.484;2022-07-29T01:32:54;24.10;67.20
68766;DHT22;55756;45.582;11.484;2022-07-29T01:35:25;24.00;67.60
68766;DHT22;55756;45.582;11.484;2022-07-29T01:38:01;23.90;69.20
68766;DHT22;55756;45.582;11.484;2022-07-29T01:43:36;23.70;69.80
68766;DHT22;55756;45.582;11.484;2022-07-29T01:46:06;23.70;70.00
68766;DHT22;55756;45.582;11.484;2022-07-29T01:48:36;23.70;69.70
68766;DHT22;55756;45.582;11.484;2022-07-29T01:54:02;23.60;69.60
68766;DHT22;55756;45.582;11.484;2022-07-29T01:56:31;23.50;70.30
68766;DHT22;55756;45.582;11.484;2022-07-29T01:59:00;23.50;70.10
68766;DHT22;55756;45.582;11.484;2022-07-29T02:01:27;23.60;69.70
68766;DHT22;55756;45.582;11.484;2022-07-29T02:03:54;23.50;69.50
68766;DHT22;55756;45.582;11.484;2022-07-29T02:06:22;23.40;69.80
68766;DHT22;55756;45.582;11.484;2022-07-29T02:08:50;23.50;70.00
68766;DHT22;55756;45.582;11.484;2022-07-29T02:11:17;23.50;70.20
68766;DHT22;55756;45.582;11.484;2022-07-29T02:13:44;23.30;70.50
68766;DHT22;55756;45.582;11.484;2022-07-29T02:16:10;23.20;70.90
68766;DHT22;55756;45.582;11.484;2022-07-29T02:18:39;23.10;71.30
68766;DHT22;55756;45.582;11.484;2022-07-29T02:21:07;23.00;71.30
68766;DHT22;55756;45.582;11.484;2022-07-29T02:23:35;23.10;71.40
68766;DHT22;55756;45.582;11.484;2022-07-29T02:26:03;23.20;71.40
68766;DHT22;55756;45.582;11.484;2022-07-29T02:28:29;23.30;70.70
68766;DHT22;55756;45.582;11.484;2022-07-29T02:30:59;23.30;70.60
68766;DHT22;55756;45.582;11.484;2022-07-29T02:33:26;23.30;70.50
68766;DHT22;55756;45.582;11.484;2022-07-29T02:35:53;23.30;70.60
68766;DHT22;55756;45.582;11.484;2022-07-29T02:38:22;23.30;70.50
68766;DHT22;55756;45.582;11.484;2022-07-29T02:41:09;23.30;70.50
68766;DHT22;55756;45.582;11.484;2022-07-29T02:43:36;23.30;70.40
68766;DHT22;55756;45.582;11.484;2022-07-29T02:46:05;23.20;70.50
68766;DHT22;55756;45.582;11.484;2022-07-29T02:48:38;23.30;70.50
68766;DHT22;55756;45.582;11.484;2022-07-29T02:52:00;23.30;70.20
68766;DHT22;55756;45.582;11.484;2022-07-29T02:54:34;23.30;70.40
68766;DHT22;55756;45.582;11.484;2022-07-29T02:57:09;23.20;70.70
68766;DHT22;55756;45.582;11.484;2022-07-29T02:59:36;23.10;70.90
68766;DHT22;55756;45.582;11.484;2022-07-29T03:02:07;23.10;71.50
68766;DHT22;55756;45.582;11.484;2022-07-29T03:04:34;23.00;71.50
68766;DHT22;55756;45.582;11.484;2022-07-29T03:07:01;23.00;71.30
68766;DHT22;55756;45.582;11.484;2022-07-29T03:09:29;22.90;71.60
68766;DHT22;55756;45.582;11.484;2022-07-29T03:11:56;22.80;71.80
68766;DHT22;55756;45.582;11.484;2022-07-29T03:14:23;22.80;72.30
68766;DHT22;55756;45.582;11.484;2022-07-29T03:16:49;22.90;72.20
68766;DHT22;55756;45.582;11.484;2022-07-29T03:19:17;22.80;71.80
68766;DHT22;55756;45.582;11.484;2022-07-29T03:21:44;22.80;72.00
68766;DHT22;55756;45.582;11.484;2022-07-29T03:24:09;22.70;72.10
68766;DHT22;55756;45.582;11.484;2022-07-29T03:26:35;22.60;72.30
68766;DHT22;55756;45.582;11.484;2022-07-29T03:29:01;22.50;72.20
68766;DHT22;55756;45.582;11.484;2022-07-29T03:31:27;22.40;72.60
68766;DHT22;55756;45.582;11.484;2022-07-29T03:33:53;22.40;73.10
68766;DHT22;55756;45.582;11.484;2022-07-29T03:36:18;22.40;73.20
68766;DHT22;55756;45.582;11.484;2022-07-29T03:38:45;22.40;73.40
68766;DHT22;55756;45.582;11.484;2022-07-29T03:41:13;22.40;73.60
68766;DHT22;55756;45.582;11.484;2022-07-29T03:43:41;22.40;73.00
68766;DHT22;55756;45.582;11.484;2022-07-29T03:46:09;22.30;72.80
68766;DHT22;55756;45.582;11.484;2022-07-29T03:48:39;22.20;72.50
68766;DHT22;55756;45.582;11.484;2022-07-29T03:51:06;22.10;72.80
68766;DHT22;55756;45.582;11.484;2022-07-29T03:53:32;22.10;73.30
68766;DHT22;55756;45.582;11.484;2022-07-29T03:56:02;22.10;73.40
68766;DHT22;55756;45.582;11.484;2022-07-29T03:58:28;22.00;73.60
68766;DHT22;55756;45.582;11.484;2022-07-29T04:00:55;22.10;74.10
68766;DHT22;55756;45.582;11.484;2022-07-29T04:03:22;22.20;74.30
68766;DHT22;55756;45.582;11.484;2022-07-29T04:06:06;22.20;74.10
68766;DHT22;55756;45.582;11.484;2022-07-29T04:08:33;22.20;74.10
68766;DHT22;55756;45.582;11.484;2022-07-29T04:11:00;22.30;73.80
68766;DHT22;55756;45.582;11.484;2022-07-29T04:13:26;22.30;73.60
68766;DHT22;55756;45.582;11.484;2022-07-29T04:15:52;22.30;73.30
68766;DHT22;55756;45.582;11.484;2022-07-29T04:18:18;22.40;73.10
68766;DHT22;55756;45.582;11.484;2022-07-29T04:20:43;22.40;73.30
68766;DHT22;55756;45.582;11.484;2022-07-29T04:23:09;22.50;72.40
68766;DHT22;55756;45.582;11.484;2022-07-29T04:25:40;22.50;72.00
68766;DHT22;55756;45.582;11.484;2022-07-29T04:28:06;22.40;71.90
68766;DHT22;55756;45.582;11.484;2022-07-29T04:30:33;22.30;72.50
68766;DHT22;55756;45.582;11.484;2022-07-29T04:33:01;22.70;72.00
68766;DHT22;55756;45.582;11.484;2022-07-29T04:35:27;23.20;70.40
68766;DHT22;55756;45.582;11.484;2022-07-29T04:37:53;23.60;68.80
68766;DHT22;55756;45.582;11.484;2022-07-29T04:40:19;23.90;67.50
68766;DHT22;55756;45.582;11.484;2022-07-29T04:42:46;24.10;67.60
68766;DHT22;55756;45.582;11.484;2022-07-29T04:45:12;24.50;66.20
68766;DHT22;55756;45.582;11.484;2022-07-29T04:47:38;24.90;64.80
68766;DHT22;55756;45.582;11.484;2022-07-29T04:50:04;25.30;63.40
68766;DHT22;55756;45.582;11.484;2022-07-29T04:52:31;25.60;62.30
68766;DHT22;55756;45.582;11.484;2022-07-29T04:54:57;26.00;61.70
68766;DHT22;55756;45.582;11.484;2022-07-29T04:57:23;26.30;61.00
68766;DHT22;55756;45.582;11.484;2022-07-29T04:59:48;26.60;59.70
68766;DHT22;55756;45.582;11.484;2022-07-29T05:02:14;26.80;59.10
68766;DHT22;55756;45.582;11.484;2022-07-29T05:04:40;27.10;58.10
68766;DHT22;55756;45.582;11.484;2022-07-29T05:07:06;27.30;57.40
68766;DHT22;55756;45.582;11.484;2022-07-29T05:09:32;27.70;56.10
68766;DHT22;55756;45.582;11.484;2022-07-29T05:11:58;28.10;54.00
68766;DHT22;55756;45.582;11.484;2022-07-29T05:14:23;28.40;53.00
68766;DHT22;55756;45.582;11.484;2022-07-29T05:16:49;28.70;51.80
68766;DHT22;55756;45.582;11.484;2022-07-29T05:19:17;29.10;51.50
68766;DHT22;55756;45.582;11.484;2022-07-29T05:21:44;29.60;51.20
68766;DHT22;55756;45.582;11.484;2022-07-29T05:24:10;30.00;50.90
68766;DHT22;55756;45.582;11.484;2022-07-29T05:26:36;30.30;50.10
68766;DHT22;55756;45.582;11.484;2022-07-29T05:29:02;30.20;49.30
68766;DHT22;55756;45.582;11.484;2022-07-29T05:31:28;30.60;49.10
68766;DHT22;55756;45.582;11.484;2022-07-29T05:33:53;31.10;47.70
68766;DHT22;55756;45.582;11.484;2022-07-29T05:36:19;31.60;47.10
68766;DHT22;55756;45.582;11.484;2022-07-29T05:38:45;32.10;47.00
68766;DHT22;55756;45.582;11.484;2022-07-29T05:41:11;32.50;46.40
68766;DHT22;55756;45.582;11.484;2022-07-29T05:43:37;33.00;45.20
68766;DHT22;55756;45.582;11.484;2022-07-29T05:46:03;33.40;44.40
68766;DHT22;55756;45.582;11.484;2022-07-29T05:48:28;33.70;43.00
68766;DHT22;55756;45.582;11.484;2022-07-29T05:50:54;33.90;41.50
68766;DHT22;55756;45.582;11.484;2022-07-29T05:53:20;34.20;40.50
68766;DHT22;55756;45.582;11.484;2022-07-29T05:55:47;34.70;39.90
68766;DHT22;55756;45.582;11.484;2022-07-29T05:58:13;35.10;39.60
68766;DHT22;55756;45.582;11.484;2022-07-29T06:00:39;35.70;38.60
68766;DHT22;55756;45.582;11.484;2022-07-29T06:03:05;36.20;37.60
68766;DHT22;55756;45.582;11.484;2022-07-29T06:05:31;36.80;36.50
68766;DHT22;55756;45.582;11.484;2022-07-29T06:07:56;38.40;35.10
68766;DHT22;55756;45.582;11.484;2022-07-29T06:10:22;40.20;32.60
68766;DHT22;55756;45.582;11.484;2022-07-29T06:12:49;41.90;30.30
68766;DHT22;55756;45.582;11.484;2022-07-29T06:15:15;43.20;28.50
68766;DHT22;55756;45.582;11.484;2022-07-29T06:17:41;44.00;27.80
68766;DHT22;55756;45.582;11.484;2022-07-29T06:20:07;44.30;27.70
68766;DHT22;55756;45.582;11.484;2022-07-29T06:22:32;44.90;27.00
68766;DHT22;55756;45.582;11.484;2022-07-29T06:25:00;45.20;26.40
68766;DHT22;55756;45.582;11.484;2022-07-29T06:27:26;44.80;26.80
68766;DHT22;55756;45.582;11.484;2022-07-29T06:29:51;45.00;27.10
68766;DHT22;55756;45.582;11.484;2022-07-29T06:32:17;45.60;26.40
68766;DHT22;55756;45.582;11.484;2022-07-29T06:34:44;46.40;25.40
68766;DHT22;55756;45.582;11.484;2022-07-29T06:37:10;46.80;24.20
68766;DHT22;55756;45.582;11.484;2022-07-29T06:39:36;47.20;24.20
68766;DHT22;55756;45.582;11.484;2022-07-29T06:42:04;48.00;23.80
68766;DHT22;55756;45.582;11.484;2022-07-29T06:44:31;47.00;24.50
68766;DHT22;55756;45.582;11.484;2022-07-29T06:46:57;47.20;24.60
68766;DHT22;55756;45.582;11.484;2022-07-29T06:49:22;48.60;23.20
68766;DHT22;55756;45.582;11.484;2022-07-29T06:51:49;49.40;22.30
68766;DHT22;55756;45.582;11.484;2022-07-29T06:54:15;49.80;21.60
68766;DHT22;55756;45.582;11.484;2022-07-29T06:56:41;48.90;22.00
68766;DHT22;55756;45.582;11.484;2022-07-29T06:59:09;48.90;21.90
68766;DHT22;55756;45.582;11.484;2022-07-29T07:01:37;49.40;21.80
68766;DHT22;55756;45.582;11.484;2022-07-29T07:04:03;50.30;20.90
68766;DHT22;55756;45.582;11.484;2022-07-29T07:06:29;51.50;20.20
68766;DHT22;55756;45.582;11.484;2022-07-29T07:08:55;52.70;19.10
68766;DHT22;55756;45.582;11.484;2022-07-29T07:11:21;53.40;19.10
68766;DHT22;55756;45.582;11.484;2022-07-29T07:13:46;53.80;18.30
68766;DHT22;55756;45.582;11.484;2022-07-29T07:16:12;52.50;18.50
68766;DHT22;55756;45.582;11.484;2022-07-29T07:18:38;50.50;20.20
68766;DHT22;55756;45.582;11.484;2022-07-29T07:21:04;50.40;19.80
68766;DHT22;55756;45.582;11.484;2022-07-29T07:23:31;51.70;19.60
68766;DHT22;55756;45.582;11.484;2022-07-29T07:25:56;53.30;18.50
68766;DHT22;55756;45.582;11.484;2022-07-29T07:28:22;54.90;17.40
68766;DHT22;55756;45.582;11.484;2022-07-29T07:30:48;56.20;16.40
68766;DHT22;55756;45.582;11.484;2022-07-29T07:33:14;57.10;16.30
68766;DHT22;55756;45.582;11.484;2022-07-29T07:35:41;57.70;15.60
68766;DHT22;55756;45.582;11.484;2022-07-29T07:38:07;58.30;15.10
68766;DHT22;55756;45.582;11.484;2022-07-29T07:40:33;58.40;14.70
68766;DHT22;55756;45.582;11.484;2022-07-29T07:42:59;58.30;14.70
68766;DHT22;55756;45.582;11.484;2022-07-29T07:45:25;58.60;14.60
68766;DHT22;55756;45.582;11.484;2022-07-29T07:47:51;58.60;14.30
68766;DHT22;55756;45.582;11.484;2022-07-29T07:50:17;58.80;14.50
68766;DHT22;55756;45.582;11.484;2022-07-29T07:55:14;57.70;14.90
68766;DHT22;55756;45.582;11.484;2022-07-29T07:57:40;58.10;14.90
68766;DHT22;55756;45.582;11.484;2022-07-29T08:00:06;58.90;14.50
68766;DHT22;55756;45.582;11.484;2022-07-29T08:02:39;59.50;14.10
68766;DHT22;55756;45.582;11.484;2022-07-29T08:05:07;59.30;14.00
68766;DHT22;55756;45.582;11.484;2022-07-29T08:07:33;59.20;14.40
68766;DHT22;55756;45.582;11.484;2022-07-29T08:09:59;58.00;13.60
68766;DHT22;55756;45.582;11.484;2022-07-29T08:12:25;56.90;14.40
68766;DHT22;55756;45.582;11.484;2022-07-29T08:14:50;57.20;14.60
68766;DHT22;55756;45.582;11.484;2022-07-29T08:17:16;57.50;14.70
68766;DHT22;55756;45.582;11.484;2022-07-29T08:19:42;57.80;14.20
68766;DHT22;55756;45.582;11.484;2022-07-29T08:22:08;57.90;14.20
68766;DHT22;55756;45.582;11.484;2022-07-29T08:24:35;57.90;13.80
68766;DHT22;55756;45.582;11.484;2022-07-29T08:27:18;58.20;14.00
68766;DHT22;55756;45.582;11.484;2022-07-29T08:29:45;57.40;14.30
68766;DHT22;55756;45.582;11.484;2022-07-29T08:32:11;54.00;16.20
68766;DHT22;55756;45.582;11.484;2022-07-29T08:34:37;50.10;18.70
68766;DHT22;55756;45.582;11.484;2022-07-29T08:37:03;47.50;20.70
68766;DHT22;55756;45.582;11.484;2022-07-29T08:39:28;45.60;22.50
68766;DHT22;55756;45.582;11.484;2022-07-29T08:41:55;44.30;23.60
68766;DHT22;55756;45.582;11.484;2022-07-29T08:44:21;43.30;24.20
68766;DHT22;55756;45.582;11.484;2022-07-29T08:46:48;42.70;24.50
68766;DHT22;55756;45.582;11.484;2022-07-29T08:49:15;42.10;25.40
68766;DHT22;55756;45.582;11.484;2022-07-29T08:51:41;41.40;25.60
68766;DHT22;55756;45.582;11.484;2022-07-29T08:54:09;40.70;25.80
68766;DHT22;55756;45.582;11.484;2022-07-29T08:56:36;40.30;26.70
68766;DHT22;55756;45.582;11.484;2022-07-29T08:59:05;39.80;27.20
68766;DHT22;55756;45.582;11.484;2022-07-29T09:01:33;39.40;27.90
68766;DHT22;55756;45.582;11.484;2022-07-29T09:04:03;38.60;28.40
68766;DHT22;55756;45.582;11.484;2022-07-29T09:06:32;37.80;29.20
68766;DHT22;55756;45.582;11.484;2022-07-29T09:09:00;37.60;30.00
68766;DHT22;55756;45.582;11.484;2022-07-29T09:11:26;37.40;30.50
68766;DHT22;55756;45.582;11.484;2022-07-29T09:13:53;37.60;30.10
68766;DHT22;55756;45.582;11.484;2022-07-29T09:16:20;37.80;30.40
68766;DHT22;55756;45.582;11.484;2022-07-29T09:18:46;38.00;29.50
68766;DHT22;55756;45.582;11.484;2022-07-29T09:21:15;38.20;29.70
68766;DHT22;55756;45.582;11.484;2022-07-29T09:26:33;38.00;29.70
68766;DHT22;55756;45.582;11.484;2022-07-29T09:28:59;37.40;30.50
68766;DHT22;55756;45.582;11.484;2022-07-29T09:31:36;36.90;30.80
68766;DHT22;55756;45.582;11.484;2022-07-29T09:34:02;36.80;31.90
68766;DHT22;55756;45.582;11.484;2022-07-29T09:36:28;36.80;31.80
68766;DHT22;55756;45.582;11.484;2022-07-29T09:39:03;36.90;31.90
68766;DHT22;55756;45.582;11.484;2022-07-29T09:41:29;36.90;31.80
68766;DHT22;55756;45.582;11.484;2022-07-29T09:43:59;36.90;31.50
68766;DHT22;55756;45.582;11.484;2022-07-29T09:46:25;36.70;31.90
68766;DHT22;55756;45.582;11.484;2022-07-29T09:51:33;36.70;31.60
68766;DHT22;55756;45.582;11.484;2022-07-29T09:53:58;36.10;32.40
68766;DHT22;55756;45.582;11.484;2022-07-29T09:56:43;36.00;32.70
68766;DHT22;55756;45.582;11.484;2022-07-29T09:59:09;35.40;34.00
68766;DHT22;55756;45.582;11.484;2022-07-29T10:01:36;35.20;33.90
68766;DHT22;55756;45.582;11.484;2022-07-29T10:04:03;34.80;34.90
68766;DHT22;55756;45.582;11.484;2022-07-29T10:06:29;35.00;35.30
68766;DHT22;55756;45.582;11.484;2022-07-29T10:09:04;35.30;34.60
68766;DHT22;55756;45.582;11.484;2022-07-29T10:11:32;35.30;34.70
68766;DHT22;55756;45.582;11.484;2022-07-29T10:13:58;35.00;35.10
68766;DHT22;55756;45.582;11.484;2022-07-29T10:16:24;34.80;35.20
68766;DHT22;55756;45.582;11.484;2022-07-29T10:18:51;34.30;36.10
68766;DHT22;55756;45.582;11.484;2022-07-29T10:21:17;34.20;36.40
68766;DHT22;55756;45.582;11.484;2022-07-29T10:23:44;34.30;36.10
68766;DHT22;55756;45.582;11.484;2022-07-29T10:26:11;34.60;35.50
68766;DHT22;55756;45.582;11.484;2022-07-29T10:28:36;34.90;35.30
68766;DHT22;55756;45.582;11.484;2022-07-29T10:31:05;35.20;34.60
68766;DHT22;55756;45.582;11.484;2022-07-29T10:39:24;35.80;34.20
68766;DHT22;55756;45.582;11.484;2022-07-29T10:44:33;36.10;33.20
68766;DHT22;55756;45.582;11.484;2022-07-29T10:46:59;36.20;32.80
68766;DHT22;55756;45.582;11.484;2022-07-29T10:49:26;36.20;33.10
68766;DHT22;55756;45.582;11.484;2022-07-29T10:51:58;36.20;33.10
68766;DHT22;55756;45.582;11.484;2022-07-29T10:54:43;36.20;32.90
68766;DHT22;55756;45.582;11.484;2022-07-29T10:57:29;36.30;33.00
68766;DHT22;55756;45.582;11.484;2022-07-29T11:05:17;36.40;32.50
68766;DHT22;55756;45.582;11.484;2022-07-29T11:10:38;36.40;32.90
68766;DHT22;55756;45.582;11.484;2022-07-29T11:13:04;36.30;33.30
68766;DHT22;55756;45.582;11.484;2022-07-29T11:15:53;36.30;33.10
68766;DHT22;55756;45.582;11.484;2022-07-29T11:18:20;36.30;32.90
68766;DHT22;55756;45.582;11.484;2022-07-29T11:20:50;36.40;32.90
68766;DHT22;55756;45.582;11.484;2022-07-29T11:23:30;36.70;32.80
68766;DHT22;55756;45.582;11.484;2022-07-29T11:26:16;36.70;32.20
68766;DHT22;55756;45.582;11.484;2022-07-29T11:28:58;36.70;32.50
68766;DHT22;55756;45.582;11.484;2022-07-29T11:39:33;35.90;33.70
68766;DHT22;55756;45.582;11.484;2022-07-29T11:47:40;35.90;34.10
68766;DHT22;55756;45.582;11.484;2022-07-29T11:50:12;35.90;34.10
68766;DHT22;55756;45.582;11.484;2022-07-29T11:52:40;35.90;34.00
68766;DHT22;55756;45.582;11.484;2022-07-29T11:55:19;35.40;34.80
68766;DHT22;55756;45.582;11.484;2022-07-29T11:57:47;35.40;35.30
68766;DHT22;55756;45.582;11.484;2022-07-29T12:00:22;35.80;34.90
68766;DHT22;55756;45.582;11.484;2022-07-29T12:02:48;36.00;34.20
68766;DHT22;55756;45.582;11.484;2022-07-29T12:05:14;36.20;34.00
68766;DHT22;55756;45.582;11.484;2022-07-29T12:07:40;36.30;34.20
68766;DHT22;55756;45.582;11.484;2022-07-29T12:10:07;36.40;33.50
68766;DHT22;55756;45.582;11.484;2022-07-29T12:12:34;36.40;33.30
68766;DHT22;55756;45.582;11.484;2022-07-29T12:15:14;36.20;33.50
68766;DHT22;55756;45.582;11.484;2022-07-29T12:17:41;36.10;34.60
68766;DHT22;55756;45.582;11.484;2022-07-29T12:20:07;36.00;34.10
68766;DHT22;55756;45.582;11.484;2022-07-29T12:22:41;35.90;33.70
68766;DHT22;55756;45.582;11.484;2022-07-29T12:25:13;35.40;34.70
68766;DHT22;55756;45.582;11.484;2022-07-29T12:27:41;35.20;35.40
68766;DHT22;55756;45.582;11.484;2022-07-29T12:30:09;35.40;36.00
68766;DHT22;55756;45.582;11.484;2022-07-29T12:32:37;35.90;35.10
68766;DHT22;55756;45.582;11.484;2022-07-29T12:35:06;36.20;33.70
68766;DHT22;55756;45.582;11.484;2022-07-29T12:37:34;36.50;33.40
68766;DHT22;55756;45.582;11.484;2022-07-29T12:40:05;36.60;33.40
68766;DHT22;55756;45.582;11.484;2022-07-29T12:42:31;36.70;33.30
68766;DHT22;55756;45.582;11.484;2022-07-29T12:44:57;36.80;32.80
68766;DHT22;55756;45.582;11.484;2022-07-29T12:47:23;36.70;32.50
68766;DHT22;55756;45.582;11.484;2022-07-29T12:49:50;36.50;32.70
68766;DHT22;55756;45.582;11.484;2022-07-29T12:54:53;36.50;32.10
68766;DHT22;55756;45.582;11.484;2022-07-29T12:57:18;36.40;32.80
68766;DHT22;55756;45.582;11.484;2022-07-29T12:59:44;36.50;33.10
68766;DHT22;55756;45.582;11.484;2022-07-29T13:02:23;36.60;33.10
68766;DHT22;55756;45.582;11.484;2022-07-29T13:04:59;36.70;33.40
68766;DHT22;55756;45.582;11.484;2022-07-29T13:07:30;36.90;33.20
68766;DHT22;55756;45.582;11.484;2022-07-29T13:10:19;37.00;32.30
68766;DHT22;55756;45.582;11.484;2022-07-29T13:15:38;37.30;32.00
68766;DHT22;55756;45.582;11.484;2022-07-29T13:18:06;37.30;31.70
68766;DHT22;55756;45.582;11.484;2022-07-29T13:20:51;37.20;31.80
68766;DHT22;55756;45.582;11.484;2022-07-29T13:23:16;36.90;31.60
68766;DHT22;55756;45.582;11.484;2022-07-29T13:25:42;36.80;32.60
68766;DHT22;55756;45.582;11.484;2022-07-29T13:28:08;36.60;31.50
68766;DHT22;55756;45.582;11.484;2022-07-29T13:30:34;36.30;32.00
68766;DHT22;55756;45.582;11.484;2022-07-29T13:32:59;36.20;31.90
68766;DHT22;55756;45.582;11.484;2022-07-29T13:35:25;36.30;32.20
68766;DHT22;55756;45.582;11.484;2022-07-29T13:37:51;36.30;32.50
68766;DHT22;55756;45.582;11.484;2022-07-29T13:40:18;36.40;32.40
68766;DHT22;55756;45.582;11.484;2022-07-29T13:42:43;36.50;31.70
68766;DHT22;55756;45.582;11.484;2022-07-29T13:45:10;36.60;31.60
68766;DHT22;55756;45.582;11.484;2022-07-29T13:47:36;36.50;32.00
68766;DHT22;55756;45.582;11.484;2022-07-29T13:50:03;36.40;31.60
68766;DHT22;55756;45.582;11.484;2022-07-29T13:52:29;36.30;31.00
68766;DHT22;55756;45.582;11.484;2022-07-29T13:54:56;36.30;31.80
68766;DHT22;55756;45.582;11.484;2022-07-29T13:57:21;36.20;31.50
68766;DHT22;55756;45.582;11.484;2022-07-29T13:59:47;36.20;32.40
68766;DHT22;55756;45.582;11.484;2022-07-29T14:02:14;36.30;31.90
68766;DHT22;55756;45.582;11.484;2022-07-29T14:04:39;36.20;32.40
68766;DHT22;55756;45.582;11.484;2022-07-29T14:07:06;36.10;31.40
68766;DHT22;55756;45.582;11.484;2022-07-29T14:09:31;35.90;32.30
68766;DHT22;55756;45.582;11.484;2022-07-29T14:11:57;35.90;31.70
68766;DHT22;55756;45.582;11.484;2022-07-29T14:14:23;36.00;30.90
68766;DHT22;55756;45.582;11.484;2022-07-29T14:16:49;36.10;31.20
68766;DHT22;55756;45.582;11.484;2022-07-29T14:19:15;36.20;32.10
68766;DHT22;55756;45.582;11.484;2022-07-29T14:21:40;36.20;32.00
68766;DHT22;55756;45.582;11.484;2022-07-29T14:24:06;36.20;32.20
68766;DHT22;55756;45.582;11.484;2022-07-29T14:26:32;36.20;32.80
68766;DHT22;55756;45.582;11.484;2022-07-29T14:28:58;36.20;32.30
68766;DHT22;55756;45.582;11.484;2022-07-29T14:31:24;36.20;32.60
68766;DHT22;55756;45.582;11.484;2022-07-29T14:33:50;36.00;32.80
68766;DHT22;55756;45.582;11.484;2022-07-29T14:36:16;36.10;33.90
68766;DHT22;55756;45.582;11.484;2022-07-29T14:38:42;36.20;33.50
68766;DHT22;55756;45.582;11.484;2022-07-29T14:41:08;36.30;33.00
68766;DHT22;55756;45.582;11.484;2022-07-29T14:43:34;36.40;32.60
68766;DHT22;55756;45.582;11.484;2022-07-29T14:46:00;36.70;32.00
68766;DHT22;55756;45.582;11.484;2022-07-29T14:48:26;36.80;32.60
68766;DHT22;55756;45.582;11.484;2022-07-29T14:50:54;36.80;32.30
68766;DHT22;55756;45.582;11.484;2022-07-29T14:53:22;36.90;32.20
68766;DHT22;55756;45.582;11.484;2022-07-29T14:55:48;37.00;31.90
68766;DHT22;55756;45.582;11.484;2022-07-29T14:58:14;37.10;31.60
68766;DHT22;55756;45.582;11.484;2022-07-29T15:00:40;37.20;31.40
68766;DHT22;55756;45.582;11.484;2022-07-29T15:03:07;37.20;31.00
68766;DHT22;55756;45.582;11.484;2022-07-29T15:05:35;37.20;30.90
68766;DHT22;55756;45.582;11.484;2022-07-29T15:08:02;37.10;31.10
68766;DHT22;55756;45.582;11.484;2022-07-29T15:10:28;37.20;31.30
68766;DHT22;55756;45.582;11.484;2022-07-29T15:12:54;37.20;31.60
68766;DHT22;55756;45.582;11.484;2022-07-29T15:15:20;37.10;31.90
68766;DHT22;55756;45.582;11.484;2022-07-29T15:17:47;37.00;32.20
68766;DHT22;55756;45.582;11.484;2022-07-29T15:20:13;36.90;32.30
68766;DHT22;55756;45.582;11.484;2022-07-29T15:22:39;36.80;32.10
68766;DHT22;55756;45.582;11.484;2022-07-29T15:25:07;36.80;32.10
68766;DHT22;55756;45.582;11.484;2022-07-29T15:27:32;36.70;32.30
68766;DHT22;55756;45.582;11.484;2022-07-29T15:29:58;36.60;32.50
68766;DHT22;55756;45.582;11.484;2022-07-29T15:32:24;36.60;33.00
68766;DHT22;55756;45.582;11.484;2022-07-29T15:34:51;36.50;33.20
68766;DHT22;55756;45.582;11.484;2022-07-29T15:37:18;36.40;33.50
68766;DHT22;55756;45.582;11.484;2022-07-29T15:39:45;36.20;34.00
68766;DHT22;55756;45.582;11.484;2022-07-29T15:42:11;36.10;34.10
68766;DHT22;55756;45.582;11.484;2022-07-29T15:44:37;35.90;34.30
68766;DHT22;55756;45.582;11.484;2022-07-29T15:47:03;35.70;34.40
68766;DHT22;55756;45.582;11.484;2022-07-29T15:49:36;35.60;34.70
68766;DHT22;55756;45.582;11.484;2022-07-29T15:52:06;35.60;34.80
68766;DHT22;55756;45.582;11.484;2022-07-29T15:54:33;35.50;35.10
68766;DHT22;55756;45.582;11.484;2022-07-29T15:56:59;35.40;34.90
68766;DHT22;55756;45.582;11.484;2022-07-29T15:59:25;35.20;35.30
68766;DHT22;55756;45.582;11.484;2022-07-29T16:01:51;35.10;35.40
68766;DHT22;55756;45.582;11.484;2022-07-29T16:04:17;35.00;35.60
68766;DHT22;55756;45.582;11.484;2022-07-29T16:06:45;35.00;35.60
68766;DHT22;55756;45.582;11.484;2022-07-29T16:09:11;34.90;35.70
68766;DHT22;55756;45.582;11.484;2022-07-29T16:11:37;34.70;35.80
68766;DHT22;55756;45.582;11.484;2022-07-29T16:14:03;34.60;36.00
68766;DHT22;55756;45.582;11.484;2022-07-29T16:16:30;34.70;36.10